Авиационная погода в Лаппеэнранта

Регион: 
Погода METAR: 
EFLP 281150Z AUTO 09004KT 050V170 9999 OVC011 09/06 Q1034
Время наблюдения
2021-09-28T11:50:00Z
Температура C
9.0
Точка росы
6.0
Направление ветра
90
Скорость ветра (узлы)
4
Метео видимость
6.21
Явления погоды
Условия полета
MVFR